Time;durP1;ratioP1;P1;durP2;ratioP2;P2;SDS_P1;SDS_P2;PMS_P1;PMS_P2;Temp;Humidity;BMP_temperature;BMP_pressure;BME280_temperature;BME280_humidity;BME280_pressure;Samples;Min_cycle;Max_cycle;Signal;HPM_P1;HPM_P2
2020/12/14 00:01:35;;;;;;;4.72;0.80;;;6.10;99.90;;;;;;5027720;28;20042;-82
2020/12/14 00:04:05;;;;;;;4.25;0.60;;;6.10;99.90;;;;;;5007339;28;20030;-81
2020/12/14 00:06:31;;;;;;;4.03;0.60;;;6.10;99.90;;;;;;5001692;28;20101;-82
2020/12/14 00:08:57;;;;;;;7.60;0.70;;;6.10;99.90;;;;;;4992290;28;20037;-81
2020/12/14 00:11:22;;;;;;;3.30;0.68;;;6.10;99.90;;;;;;4992223;28;20057;-82
2020/12/14 00:13:48;;;;;;;3.00;0.77;;;6.10;99.90;;;;;;4992330;28;20033;-82
2020/12/14 00:16:13;;;;;;;4.20;0.60;;;6.10;99.90;;;;;;4988903;28;20034;-82
2020/12/14 00:18:39;;;;;;;4.60;0.60;;;6.10;99.90;;;;;;4990939;28;20034;-82
2020/12/14 00:21:05;;;;;;;4.38;0.60;;;6.00;99.90;;;;;;4988823;28;20030;-83
2020/12/14 00:23:30;;;;;;;3.58;0.60;;;6.00;99.90;;;;;;4990715;28;20102;-81
2020/12/14 00:25:56;;;;;;;5.57;0.63;;;6.10;99.90;;;;;;4991806;28;20053;-83
2020/12/14 00:28:22;;;;;;;5.65;0.73;;;6.10;99.90;;;;;;4992183;28;20042;-83
2020/12/14 00:30:47;;;;;;;1.70;0.50;;;6.00;99.90;;;;;;5008365;28;20038;-84
2020/12/14 00:33:13;;;;;;;3.45;0.75;;;6.00;99.90;;;;;;4992142;28;20034;-82
2020/12/14 00:35:38;;;;;;;4.18;0.85;;;6.00;99.90;;;;;;4992016;28;20034;-84
2020/12/14 00:38:04;;;;;;;4.85;0.73;;;6.00;99.90;;;;;;4992103;28;20113;-83
2020/12/14 00:40:32;;;;;;;7.05;0.52;;;6.00;99.90;;;;;;4988987;28;20053;-82
2020/12/14 00:42:58;;;;;;;3.20;0.52;;;6.00;99.90;;;;;;4988721;28;20125;-82
2020/12/14 00:45:23;;;;;;;5.95;1.17;;;6.00;99.90;;;;;;4988689;28;20037;-82
2020/12/14 00:47:49;;;;;;;5.13;0.82;;;6.10;99.90;;;;;;4988617;28;20042;-82
2020/12/14 00:50:15;;;;;;;5.00;0.90;;;6.10;99.90;;;;;;4988469;28;20026;-82
2020/12/14 00:52:40;;;;;;;3.63;1.00;;;6.20;99.90;;;;;;4988572;28;20038;-82
2020/12/14 00:55:06;;;;;;;4.88;0.95;;;6.10;99.90;;;;;;5006510;28;20030;-82
2020/12/14 00:57:32;;;;;;;6.05;1.02;;;6.20;99.90;;;;;;4992326;28;20046;-82
2020/12/14 00:59:57;;;;;;;5.22;0.88;;;6.20;99.90;;;;;;4992222;28;20034;-82
2020/12/14 01:02:24;;;;;;;9.00;2.50;;;6.20;99.90;;;;;;4992085;28;20060;-83
2020/12/14 01:04:51;;;;;;;4.82;1.33;;;6.20;99.90;;;;;;4992918;28;20084;-81
2020/12/14 01:07:16;;;;;;;5.80;1.17;;;6.20;99.90;;;;;;5010949;28;20113;-82
2020/12/14 01:09:42;;;;;;;5.60;1.08;;;6.10;99.90;;;;;;5027832;28;20041;-82
2020/12/14 01:12:07;;;;;;;1.80;0.70;;;6.10;99.90;;;;;;5027603;28;20107;-82
2020/12/14 01:14:33;;;;;;;3.78;1.00;;;6.10;99.90;;;;;;5029810;28;20076;-83
2020/12/14 01:16:59;;;;;;;4.68;1.13;;;6.00;99.90;;;;;;5014215;28;20093;-82
2020/12/14 01:19:24;;;;;;;6.30;1.27;;;6.10;99.90;;;;;;5027156;28;20030;-86
2020/12/14 01:21:50;;;;;;;4.30;1.02;;;6.10;99.90;;;;;;5026852;28;20040;-83
2020/12/14 01:24:15;;;;;;;4.53;1.10;;;6.10;99.90;;;;;;5031093;28;20137;-82
2020/12/14 01:26:41;;;;;;;3.78;1.30;;;6.10;99.90;;;;;;5030569;28;20048;-82
2020/12/14 01:29:07;;;;;;;4.10;1.40;;;6.10;99.90;;;;;;5014561;28;20048;-83
2020/12/14 01:31:32;;;;;;;4.82;1.40;;;6.10;99.90;;;;;;5030385;28;20056;-83
2020/12/14 01:33:58;;;;;;;3.85;1.25;;;6.10;99.90;;;;;;5013907;28;20025;-83
2020/12/14 01:36:23;;;;;;;4.18;1.40;;;6.10;99.90;;;;;;5013929;28;20501;-83
2020/12/14 01:38:49;;;;;;;5.10;1.48;;;6.10;99.90;;;;;;5014548;28;20481;-83
2020/12/14 01:41:15;;;;;;;4.93;1.30;;;6.10;99.90;;;;;;5014166;28;20056;-83
2020/12/14 01:43:40;;;;;;;8.05;1.63;;;6.10;99.90;;;;;;5030465;28;20030;-82
2020/12/14 01:46:06;;;;;;;4.53;1.52;;;6.20;99.90;;;;;;5013672;28;20539;-83
2020/12/14 01:48:31;;;;;;;5.45;1.60;;;6.20;99.90;;;;;;5030187;28;20049;-83
2020/12/14 01:50:57;;;;;;;4.50;1.38;;;6.20;99.90;;;;;;5014011;28;20029;-83
2020/12/14 01:53:24;;;;;;;7.03;1.73;;;6.20;99.90;;;;;;5014133;28;20026;-83
2020/12/14 01:55:54;;;;;;;7.50;1.88;;;6.20;99.90;;;;;;5030104;28;20033;-82
2020/12/14 01:58:19;;;;;;;5.13;1.58;;;6.20;99.90;;;;;;5023236;28;20038;-84
2020/12/14 02:00:45;;;;;;;4.38;1.38;;;6.20;99.90;;;;;;5026899;28;20045;-83
2020/12/14 02:03:10;;;;;;;5.28;1.33;;;6.20;99.90;;;;;;5010093;28;20077;-82
2020/12/14 02:05:36;;;;;;;6.10;1.63;;;6.20;99.90;;;;;;5026151;28;20046;-82
2020/12/14 02:08:05;;;;;;;5.72;1.35;;;6.20;99.90;;;;;;5009991;28;20042;-83
2020/12/14 02:10:31;;;;;;;6.60;1.40;;;6.20;99.90;;;;;;5010113;28;20026;-84
2020/12/14 02:12:57;;;;;;;3.58;1.40;;;6.20;99.90;;;;;;5026571;28;20042;-83
2020/12/14 02:15:23;;;;;;;5.18;1.85;;;6.10;99.90;;;;;;5029564;28;20033;-83
2020/12/14 02:17:48;;;;;;;5.00;1.30;;;6.20;99.90;;;;;;5013553;28;20034;-84
2020/12/14 02:20:14;;;;;;;4.10;1.35;;;6.20;99.90;;;;;;5013401;28;20030;-83
2020/12/14 02:22:39;;;;;;;6.75;1.17;;;6.10;99.90;;;;;;5013293;28;20109;-82
2020/12/14 02:25:06;;;;;;;6.13;1.58;;;6.20;99.90;;;;;;5029995;28;20079;-83
2020/12/14 02:27:34;;;;;;;4.88;1.70;;;6.20;99.90;;;;;;5013865;28;20041;-82
2020/12/14 02:30:00;;;;;;;4.13;1.30;;;6.20;99.90;;;;;;5029649;28;20041;-82
2020/12/14 02:32:26;;;;;;;7.10;1.60;;;6.20;99.90;;;;;;5013134;28;20045;-83
2020/12/14 02:34:53;;;;;;;7.90;1.65;;;6.20;99.90;;;;;;5013103;28;20476;-83
2020/12/14 02:37:21;;;;;;;4.60;1.40;;;6.30;99.90;;;;;;5012908;28;20053;-83
2020/12/14 02:39:47;;;;;;;4.88;1.10;;;6.30;99.90;;;;;;5013118;28;20114;-82
2020/12/14 02:42:18;;;;;;;5.53;1.30;;;6.30;99.90;;;;;;5012931;28;20041;-82
2020/12/14 02:44:44;;;;;;;2.95;1.00;;;6.30;99.90;;;;;;5029598;28;20068;-82
2020/12/14 02:47:10;;;;;;;5.03;1.00;;;6.30;99.90;;;;;;5012796;28;20059;-82
2020/12/14 02:49:37;;;;;;;4.28;0.80;;;6.30;99.90;;;;;;5029211;28;20037;-81
2020/12/14 02:52:04;;;;;;;3.63;0.95;;;6.30;99.90;;;;;;5012475;28;20029;-85
2020/12/14 02:54:29;;;;;;;5.20;1.40;;;6.30;99.90;;;;;;5012662;28;20033;-84
2020/12/14 02:56:56;;;;;;;5.03;1.30;;;6.40;99.90;;;;;;5012689;28;20045;-84
2020/12/14 02:59:22;;;;;;;4.95;1.63;;;6.40;99.90;;;;;;5012922;28;20029;-82
2020/12/14 03:01:49;;;;;;;3.65;0.98;;;6.40;99.90;;;;;;5012548;28;20116;-83
2020/12/14 03:04:15;;;;;;;3.67;1.25;;;6.40;99.90;;;;;;5035976;23;20037;-82
2020/12/14 03:06:44;;;;;;;4.72;1.63;;;6.30;99.90;;;;;;5065257;28;20121;-82
2020/12/14 03:09:10;;;;;;;5.13;1.08;;;6.30;99.90;;;;;;5032455;28;20120;-81
2020/12/14 03:11:37;;;;;;;4.03;0.88;;;6.30;99.90;;;;;;5048836;28;20064;-82
2020/12/14 03:14:03;;;;;;;3.22;0.90;;;6.30;99.90;;;;;;5032449;28;20148;-81
2020/12/14 03:16:31;;;;;;;2.30;0.70;;;6.30;99.90;;;;;;5032158;28;20068;-82
2020/12/14 03:18:57;;;;;;;3.45;0.80;;;6.30;99.90;;;;;;5032154;28;20056;-82
2020/12/14 03:21:23;;;;;;;3.60;1.25;;;6.30;99.90;;;;;;5028317;28;20033;-83
2020/12/14 03:23:48;;;;;;;5.43;0.80;;;6.30;99.90;;;;;;5045628;28;20059;-82
2020/12/14 03:26:15;;;;;;;3.67;0.88;;;6.30;99.90;;;;;;5045258;28;20035;-82
2020/12/14 03:28:41;;;;;;;4.18;0.85;;;6.30;99.90;;;;;;5045513;28;20198;-83
2020/12/14 03:31:07;;;;;;;4.47;0.77;;;6.40;99.90;;;;;;5045163;28;20033;-82
2020/12/14 03:33:32;;;;;;;4.50;0.88;;;6.30;99.90;;;;;;5028539;28;20052;-82
2020/12/14 03:35:59;;;;;;;4.00;0.70;;;6.40;99.90;;;;;;5044948;28;20040;-83
2020/12/14 03:38:26;;;;;;;4.25;0.93;;;6.30;99.90;;;;;;5044867;28;20049;-82
2020/12/14 03:40:52;;;;;;;2.83;0.75;;;6.40;99.90;;;;;;5028560;28;20140;-80
2020/12/14 03:43:17;;;;;;;1.60;0.50;;;6.30;99.90;;;;;;5028399;28;20041;-82
2020/12/14 03:45:43;;;;;;;2.03;0.60;;;6.30;99.90;;;;;;5044796;28;20034;-82
2020/12/14 03:48:09;;;;;;;4.15;0.63;;;6.30;99.90;;;;;;5044623;28;20072;-82
2020/12/14 03:50:34;;;;;;;6.68;1.08;;;6.30;99.90;;;;;;5028530;28;20041;-81
2020/12/14 03:53:00;;;;;;;2.58;0.73;;;6.40;99.90;;;;;;5044481;28;20029;-82
2020/12/14 03:55:28;;;;;;;4.43;0.73;;;6.40;99.90;;;;;;5028362;28;20097;-83
2020/12/14 03:57:54;;;;;;;3.83;1.00;;;6.40;99.90;;;;;;5028212;28;20108;-82
2020/12/14 04:00:19;;;;;;;4.88;0.77;;;6.40;99.90;;;;;;5044581;28;20065;-82
2020/12/14 04:02:45;;;;;;;3.28;0.65;;;6.40;99.90;;;;;;5044731;28;20171;-84
2020/12/14 04:05:10;;;;;;;4.22;0.80;;;6.50;99.90;;;;;;5026160;28;20054;-83
2020/12/14 04:07:36;;;;;;;3.30;0.70;;;6.50;99.90;;;;;;5027323;28;20075;-83
2020/12/14 04:10:02;;;;;;;2.70;0.52;;;6.40;99.90;;;;;;5012050;28;20021;-83
2020/12/14 04:12:28;;;;;;;1.98;0.55;;;6.50;99.90;;;;;;5028215;28;20037;-82
2020/12/14 04:14:54;;;;;;;2.38;0.60;;;6.50;99.90;;;;;;5033355;28;20055;-83
2020/12/14 04:17:19;;;;;;;4.45;0.70;;;6.50;99.90;;;;;;5032708;28;20033;-83
2020/12/14 04:19:45;;;;;;;2.33;0.60;;;6.50;99.90;;;;;;5031421;28;20432;-82
2020/12/14 04:22:10;;;;;;;2.58;0.60;;;6.50;99.90;;;;;;5027901;28;20052;-83
2020/12/14 04:24:37;;;;;;;3.95;0.73;;;6.50;99.90;;;;;;5027931;28;20036;-83
2020/12/14 04:27:03;;;;;;;3.17;0.50;;;6.40;99.90;;;;;;5027936;28;20042;-83
2020/12/14 04:29:29;;;;;;;3.70;0.70;;;6.40;99.90;;;;;;5029000;28;20056;-83
2020/12/14 04:31:55;;;;;;;3.65;0.60;;;6.40;99.90;;;;;;5031561;28;20042;-83
2020/12/14 04:34:22;;;;;;;1.92;0.43;;;6.40;99.90;;;;;;5031680;28;20044;-82
2020/12/14 04:36:49;;;;;;;2.30;0.50;;;6.40;99.90;;;;;;5031694;28;20030;-82
2020/12/14 04:39:15;;;;;;;2.83;0.50;;;6.30;99.90;;;;;;5031794;28;20048;-82
2020/12/14 04:41:41;;;;;;;3.00;0.90;;;6.30;99.90;;;;;;5048198;28;20042;-82
2020/12/14 04:44:08;;;;;;;4.28;0.65;;;6.20;99.90;;;;;;5048145;28;20037;-82
2020/12/14 04:46:35;;;;;;;3.47;0.65;;;6.20;99.90;;;;;;5031367;28;20049;-83
2020/12/14 04:49:06;;;;;;;4.18;1.02;;;6.20;99.90;;;;;;5031712;28;20509;-82
2020/12/14 04:51:35;;;;;;;3.30;0.52;;;6.10;99.90;;;;;;5031510;28;20033;-82
2020/12/14 04:54:01;;;;;;;4.80;1.00;;;6.20;99.90;;;;;;5031327;28;20037;-82
2020/12/14 04:56:28;;;;;;;4.97;0.80;;;6.20;99.90;;;;;;5047903;28;20030;-82
2020/12/14 04:58:55;;;;;;;2.58;0.50;;;6.20;99.90;;;;;;5047840;28;20040;-83
2020/12/14 05:01:21;;;;;;;2.40;0.50;;;6.20;99.90;;;;;;5031107;28;20037;-82
2020/12/14 05:03:47;;;;;;;3.03;0.80;;;6.20;99.90;;;;;;5030698;28;20120;-83
2020/12/14 05:06:13;;;;;;;2.78;0.70;;;6.20;99.90;;;;;;5055285;23;20054;-82
2020/12/14 05:08:38;;;;;;;2.58;0.57;;;6.20;99.90;;;;;;5031417;28;20037;-82
2020/12/14 05:11:04;;;;;;;2.38;0.60;;;6.20;99.90;;;;;;5048743;28;20025;-82
2020/12/14 05:13:33;;;;;;;3.80;0.63;;;6.20;99.90;;;;;;5051006;28;20025;-82
2020/12/14 05:15:59;;;;;;;3.13;0.60;;;6.20;99.90;;;;;;5051203;28;20029;-82
2020/12/14 05:18:26;;;;;;;5.25;0.95;;;6.20;99.90;;;;;;5031050;28;20061;-82
2020/12/14 05:20:59;;;;;;;2.55;0.65;;;6.20;99.90;;;;;;5047489;28;20471;-82
2020/12/14 05:23:25;;;;;;;2.40;0.80;;;6.20;99.90;;;;;;5047329;28;20408;-81
2020/12/14 05:26:02;;;;;;;6.63;0.77;;;6.20;99.90;;;;;;5046206;28;20037;-81
2020/12/14 05:28:29;;;;;;;2.50;0.50;;;6.20;99.90;;;;;;5051184;28;20049;-85
2020/12/14 05:30:55;;;;;;;5.25;0.73;;;6.20;99.90;;;;;;5037506;28;20030;-86
2020/12/14 05:33:27;;;;;;;3.30;0.77;;;6.30;99.90;;;;;;5012655;28;20544;-84
2020/12/14 05:35:54;;;;;;;4.60;0.70;;;6.30;99.90;;;;;;5018553;28;20029;-86
2020/12/14 05:38:27;;;;;;;3.60;0.63;;;6.30;99.90;;;;;;5036786;28;20028;-86
2020/12/14 05:40:56;;;;;;;3.95;1.05;;;6.30;99.90;;;;;;5052628;28;20032;-85
2020/12/14 05:43:27;;;;;;;2.42;0.65;;;6.30;99.90;;;;;;5070482;28;20229;-87
2020/12/14 05:45:54;;;;;;;5.57;0.80;;;6.30;99.90;;;;;;5053751;28;20115;-83
2020/12/14 05:48:31;;;;;;;2.45;0.65;;;6.30;99.90;;;;;;5070382;28;20052;-87
2020/12/14 05:51:03;;;;;;;4.45;0.88;;;6.30;99.90;;;;;;5032662;28;20396;-86
2020/12/14 05:53:40;;;;;;;4.28;0.70;;;6.30;99.90;;;;;;5039323;28;20037;-87
2020/12/14 05:56:07;;;;;;;4.20;0.60;;;6.30;99.90;;;;;;5080428;28;20034;-85
2020/12/14 05:58:35;;;;;;;4.85;0.60;;;6.30;99.90;;;;;;5053433;28;20024;-83
2020/12/14 06:01:03;;;;;;;2.88;0.70;;;6.30;99.90;;;;;;5053509;28;20054;-86
2020/12/14 06:03:49;;;;;;;2.38;0.60;;;6.40;99.90;;;;;;5052951;28;20050;-85
2020/12/14 06:06:16;;;;;;;5.80;1.10;;;6.30;99.90;;;;;;5008900;28;20054;-86
2020/12/14 06:09:02;;;;;;;2.95;0.73;;;6.40;99.90;;;;;;5009086;28;20117;-85
2020/12/14 06:11:27;;;;;;;3.88;0.82;;;6.40;99.90;;;;;;5025456;28;20038;-86
2020/12/14 06:13:58;;;;;;;4.20;1.52;;;6.40;99.90;;;;;;5009262;28;20069;-85
2020/12/14 06:16:32;;;;;;;1.80;0.70;;;6.40;99.90;;;;;;4987899;28;20045;-86
2020/12/14 06:18:58;;;;;;;2.22;0.70;;;6.40;99.90;;;;;;4980661;28;20042;-86
2020/12/14 06:21:44;;;;;;;2.42;0.68;;;6.30;99.90;;;;;;4989428;28;20098;-86
2020/12/14 06:24:30;;;;;;;3.90;0.75;;;6.40;99.90;;;;;;5005855;28;20034;-85
2020/12/14 06:26:56;;;;;;;4.35;0.60;;;6.40;99.90;;;;;;4990289;28;20041;-85
2020/12/14 06:29:54;;;;;;;2.05;0.60;;;6.40;99.90;;;;;;4996207;28;20038;-85
2020/12/14 06:32:40;;;;;;;4.90;0.60;;;6.40;99.90;;;;;;4952331;28;20038;-84
2020/12/14 06:35:14;;;;;;;1.98;0.60;;;6.40;99.90;;;;;;4989062;28;20034;-84
2020/12/14 06:37:53;;;;;;;2.97;0.70;;;6.50;99.90;;;;;;4989446;28;20109;-85
2020/12/14 06:40:19;;;;;;;4.60;0.77;;;6.50;99.90;;;;;;4988931;28;20042;-85
2020/12/14 06:42:46;;;;;;;2.85;0.60;;;6.50;99.90;;;;;;4997673;28;20470;-84
2020/12/14 06:45:13;;;;;;;2.63;0.60;;;6.50;99.90;;;;;;5036345;28;20084;-85
2020/12/14 06:47:57;;;;;;;3.00;0.60;;;6.50;99.90;;;;;;5038995;28;20507;-86
2020/12/14 06:50:28;;;;;;;2.28;0.60;;;6.50;99.90;;;;;;5044165;28;20480;-83
2020/12/14 06:52:54;;;;;;;3.78;0.77;;;6.50;99.90;;;;;;5048427;28;20056;-85
2020/12/14 06:55:43;;;;;;;3.53;0.70;;;6.50;99.90;;;;;;5052304;28;20092;-84
2020/12/14 06:58:29;;;;;;;3.05;0.80;;;6.50;99.90;;;;;;5052337;28;20063;-83
2020/12/14 07:00:56;;;;;;;3.55;0.90;;;6.60;99.90;;;;;;5052255;28;20490;-84
2020/12/14 07:03:45;;;;;;;3.95;0.60;;;6.50;99.90;;;;;;5051805;28;20036;-84
2020/12/14 07:06:10;;;;;;;2.78;0.68;;;6.60;99.90;;;;;;4991631;28;20140;-84
2020/12/14 07:08:41;;;;;;;3.63;0.70;;;6.60;99.90;;;;;;4995366;28;20050;-84
2020/12/14 07:11:15;;;;;;;1.85;0.60;;;6.60;99.90;;;;;;4970243;28;20459;-85
2020/12/14 07:13:43;;;;;;;2.17;0.60;;;6.60;99.90;;;;;;4985692;28;20034;-84
2020/12/14 07:16:10;;;;;;;1.65;0.60;;;6.60;99.90;;;;;;4956666;28;20063;-85
2020/12/14 07:18:37;;;;;;;3.65;0.60;;;6.60;99.90;;;;;;5000775;28;20031;-83
2020/12/14 07:21:10;;;;;;;2.38;0.60;;;6.60;99.90;;;;;;5003334;28;20036;-85
2020/12/14 07:23:36;;;;;;;1.95;0.68;;;6.60;99.90;;;;;;4984666;28;20051;-84
2020/12/14 07:26:03;;;;;;;2.30;0.65;;;6.60;99.90;;;;;;4991260;28;20054;-85
2020/12/14 07:28:41;;;;;;;2.65;0.60;;;6.60;99.90;;;;;;4996154;28;20065;-85
2020/12/14 07:31:12;;;;;;;2.08;0.70;;;6.60;99.90;;;;;;5003159;28;20065;-83
2020/12/14 07:33:39;;;;;;;3.00;0.70;;;6.70;99.90;;;;;;4974326;28;20066;-84
2020/12/14 07:36:08;;;;;;;5.78;0.70;;;6.70;99.90;;;;;;4991938;28;20034;-85
2020/12/14 07:38:33;;;;;;;5.43;1.05;;;6.70;99.90;;;;;;4992255;28;20465;-86
2020/12/14 07:41:08;;;;;;;1.65;0.60;;;6.70;99.90;;;;;;5003738;28;20038;-84
2020/12/14 07:43:44;;;;;;;3.70;0.70;;;6.70;99.90;;;;;;5007983;28;20037;-84
2020/12/14 07:46:24;;;;;;;2.72;0.80;;;6.70;99.90;;;;;;5024097;28;20098;-85
2020/12/14 07:49:11;;;;;;;3.35;0.80;;;6.80;99.90;;;;;;5012726;28;20044;-84
2020/12/14 07:51:44;;;;;;;2.92;0.98;;;6.80;99.90;;;;;;5031749;28;20086;-84
2020/12/14 07:54:11;;;;;;;2.00;0.55;;;6.80;99.90;;;;;;5041947;28;20025;-84
2020/12/14 07:56:42;;;;;;;2.35;0.70;;;6.70;99.90;;;;;;4992117;28;20101;-85
2020/12/14 07:59:22;;;;;;;2.60;1.08;;;6.80;99.90;;;;;;5027038;28;20034;-85
2020/12/14 08:01:48;;;;;;;;;;;6.80;99.90;;;;;;5021262;28;20101;-84
2020/12/14 08:04:28;;;;;;;2.78;1.00;;;6.80;99.90;;;;;;5017726;28;19920;-84
2020/12/14 08:06:57;;;;;;;3.30;1.13;;;6.80;99.90;;;;;;5053528;28;20061;-84
2020/12/14 08:09:30;;;;;;;4.18;1.23;;;6.90;99.90;;;;;;4992028;28;20057;-83
2020/12/14 08:11:56;;;;;;;5.15;1.65;;;6.90;99.90;;;;;;5018861;28;20040;-84
2020/12/14 08:14:23;;;;;;;4.13;1.63;;;7.00;99.90;;;;;;5038346;28;20287;-83
2020/12/14 08:16:49;;;;;;;3.58;1.17;;;7.00;99.90;;;;;;5047130;28;20093;-84
2020/12/14 08:19:19;;;;;;;2.58;1.13;;;7.00;99.90;;;;;;5041956;28;20034;-84
2020/12/14 08:22:04;;;;;;;3.47;1.40;;;7.00;99.90;;;;;;5033598;28;20112;-85
2020/12/14 08:24:30;;;;;;;2.75;1.10;;;7.20;99.90;;;;;;5023120;28;20064;-83
2020/12/14 08:27:01;;;;;;;3.47;0.98;;;7.10;99.90;;;;;;5028767;28;20046;-84
2020/12/14 08:29:31;;;;;;;2.63;1.50;;;7.10;99.90;;;;;;5026698;28;20400;-84
2020/12/14 08:32:00;;;;;;;2.78;1.10;;;7.10;99.90;;;;;;5025840;28;20040;-83
2020/12/14 08:34:33;;;;;;;3.10;0.80;;;7.10;99.90;;;;;;5005610;28;20474;-84
2020/12/14 08:37:00;;;;;;;2.60;1.20;;;7.20;99.90;;;;;;5024537;28;20034;-84
2020/12/14 08:39:25;;;;;;;2.17;0.88;;;7.20;99.90;;;;;;5031990;28;20457;-84
2020/12/14 08:42:09;;;;;;;8.05;1.58;;;7.20;99.90;;;;;;5025676;28;20033;-84
2020/12/14 08:44:35;;;;;;;2.85;1.30;;;7.30;99.90;;;;;;5039644;28;20034;-84
2020/12/14 08:47:09;;;;;;;5.03;1.92;;;7.30;99.90;;;;;;5022776;28;20095;-84
2020/12/14 08:49:35;;;;;;;2.03;0.80;;;7.30;99.90;;;;;;5031306;28;20029;-84
2020/12/14 08:52:00;;;;;;;3.30;1.85;;;7.30;99.90;;;;;;5033624;28;20036;-84
2020/12/14 08:54:26;;;;;;;2.97;1.38;;;7.30;99.90;;;;;;5014171;28;20040;-85
2020/12/14 08:56:52;;;;;;;3.38;1.40;;;7.40;99.90;;;;;;5017641;28;20037;-85
2020/12/14 08:59:18;;;;;;;2.72;1.02;;;7.30;99.90;;;;;;5020117;28;20091;-84
2020/12/14 09:02:02;;;;;;;2.80;0.73;;;7.40;99.90;;;;;;5031784;28;20032;-84
2020/12/14 09:04:35;;;;;;;4.47;1.33;;;7.40;99.90;;;;;;5016296;28;20029;-83
2020/12/14 09:07:01;;;;;;;2.30;1.23;;;7.40;99.90;;;;;;5028002;28;20046;-84
2020/12/14 09:09:29;;;;;;;2.80;1.17;;;7.50;99.90;;;;;;5002519;28;20099;-84
2020/12/14 09:11:55;;;;;;;3.58;1.45;;;7.50;99.90;;;;;;5036543;28;20032;-83
2020/12/14 09:14:28;;;;;;;2.75;1.40;;;7.50;99.90;;;;;;5034878;28;20068;-84
2020/12/14 09:16:57;;;;;;;2.50;1.42;;;7.50;99.90;;;;;;5025007;28;20064;-84
2020/12/14 09:19:25;;;;;;;2.80;1.10;;;7.50;99.90;;;;;;5048514;28;20033;-83
2020/12/14 09:21:52;;;;;;;3.08;1.20;;;7.50;99.90;;;;;;5017004;28;20065;-84
2020/12/14 09:24:21;;;;;;;3.05;1.73;;;7.50;99.90;;;;;;5036210;28;20071;-84
2020/12/14 09:26:48;;;;;;;3.67;1.80;;;7.60;99.90;;;;;;5034765;28;20040;-85
2020/12/14 09:29:14;;;;;;;3.70;2.05;;;7.60;99.90;;;;;;5041510;28;20060;-84
2020/12/14 09:31:57;;;;;;;4.88;1.98;;;7.60;99.90;;;;;;5030169;28;20037;-83
2020/12/14 09:34:23;;;;;;;3.30;1.33;;;7.70;99.90;;;;;;5020563;28;20092;-84
2020/12/14 09:36:57;;;;;;;2.47;1.35;;;7.60;99.90;;;;;;5014450;28;20026;-83
2020/12/14 09:39:24;;;;;;;3.42;1.85;;;7.70;99.90;;;;;;5035437;28;20033;-84
2020/12/14 09:41:51;;;;;;;3.20;1.73;;;7.70;99.90;;;;;;5033407;28;20056;-84
2020/12/14 09:44:17;;;;;;;3.67;1.83;;;7.80;99.90;;;;;;5034208;28;20029;-83
2020/12/14 09:46:43;;;;;;;3.17;1.33;;;7.80;99.90;;;;;;5033064;28;20037;-84
2020/12/14 09:49:09;;;;;;;4.35;1.73;;;7.80;99.90;;;;;;5035074;28;20042;-83
2020/12/14 09:51:35;;;;;;;3.20;2.20;;;7.90;99.90;;;;;;5022692;28;20135;-83
2020/12/14 09:54:03;;;;;;;2.75;1.75;;;7.90;99.90;;;;;;5031566;28;20034;-84
2020/12/14 09:56:28;;;;;;;3.60;2.10;;;8.00;99.90;;;;;;5043843;28;20025;-84
2020/12/14 09:58:54;;;;;;;2.75;1.52;;;8.00;99.90;;;;;;5029970;28;20083;-85
2020/12/14 10:01:19;;;;;;;5.38;2.20;;;8.00;99.90;;;;;;5048800;28;20384;-85
2020/12/14 10:04:05;;;;;;;3.65;1.52;;;8.10;99.90;;;;;;5048951;28;20067;-85
2020/12/14 10:06:32;;;;;;;2.65;1.55;;;8.10;99.90;;;;;;4991371;28;20050;-85
2020/12/14 10:08:57;;;;;;;3.45;1.85;;;8.10;99.90;;;;;;4973298;28;20042;-84
2020/12/14 10:11:27;;;;;;;3.78;1.80;;;8.10;99.90;;;;;;4972833;28;20054;-86
2020/12/14 10:13:53;;;;;;;3.92;2.38;;;8.20;99.90;;;;;;4989251;28;20042;-84
2020/12/14 10:16:19;;;;;;;5.80;1.83;;;8.20;99.90;;;;;;4953635;29;20120;-86
2020/12/14 10:18:45;;;;;;;3.45;2.05;;;8.20;99.90;;;;;;4966542;29;20043;-85
2020/12/14 10:21:11;;;;;;;3.92;2.22;;;8.30;99.90;;;;;;4954547;28;20113;-84
2020/12/14 10:23:37;;;;;;;4.80;3.60;;;8.30;99.90;;;;;;4969884;28;20057;-84
2020/12/14 10:26:03;;;;;;;4.05;3.25;;;8.30;99.90;;;;;;4985750;28;20046;-84
2020/12/14 10:28:29;;;;;;;4.10;2.72;;;8.30;99.90;;;;;;4985104;28;20051;-84
2020/12/14 10:30:55;;;;;;;3.65;2.60;;;8.30;99.90;;;;;;4985665;28;20039;-84
2020/12/14 10:33:21;;;;;;;3.38;1.50;;;8.30;99.90;;;;;;4969657;28;20098;-84
2020/12/14 10:35:48;;;;;;;3.67;3.03;;;8.40;99.90;;;;;;4969243;28;20031;-84
2020/12/14 10:38:14;;;;;;;2.47;1.40;;;8.40;99.90;;;;;;4969486;28;20038;-82
2020/12/14 10:40:40;;;;;;;4.00;2.05;;;8.40;99.90;;;;;;4969626;28;20098;-84
2020/12/14 10:43:06;;;;;;;3.88;1.73;;;8.40;99.90;;;;;;4980328;28;20375;-84
2020/12/14 10:45:32;;;;;;;5.63;3.47;;;8.40;99.90;;;;;;5012740;28;20030;-84
2020/12/14 10:47:57;;;;;;;3.47;3.17;;;8.40;99.90;;;;;;5025744;28;20038;-85
2020/12/14 10:50:24;;;;;;;3.65;2.78;;;8.40;99.90;;;;;;5025582;28;20033;-85
2020/12/14 10:52:50;;;;;;;2.97;2.15;;;8.40;99.90;;;;;;5013159;28;20037;-85
2020/12/14 10:55:18;;;;;;;3.30;2.50;;;8.50;99.90;;;;;;5028083;28;20030;-84
2020/12/14 10:57:44;;;;;;;3.25;1.77;;;8.50;99.90;;;;;;5042123;28;20026;-84
2020/12/14 11:00:10;;;;;;;2.90;2.22;;;8.50;99.90;;;;;;5019303;28;20041;-85
2020/12/14 11:02:40;;;;;;;2.70;1.63;;;8.50;99.90;;;;;;5012108;28;20029;-86
2020/12/14 11:05:08;;;;;;;3.15;1.40;;;8.50;99.90;;;;;;5024638;28;20038;-84
2020/12/14 11:07:34;;;;;;;3.78;2.92;;;8.60;99.90;;;;;;5011796;28;20069;-84
2020/12/14 11:10:01;;;;;;;4.25;3.00;;;8.60;99.90;;;;;;5012225;28;20025;-85
2020/12/14 11:12:27;;;;;;;5.93;4.72;;;8.60;99.90;;;;;;5012137;28;20084;-84
2020/12/14 11:14:53;;;;;;;4.45;2.80;;;8.60;99.90;;;;;;5010471;28;20030;-83
2020/12/14 11:17:19;;;;;;;3.03;2.63;;;8.70;99.90;;;;;;5024885;28;20040;-84
2020/12/14 11:19:45;;;;;;;2.90;2.20;;;8.70;99.90;;;;;;5005551;28;20033;-83
2020/12/14 11:22:11;;;;;;;5.30;3.03;;;8.70;99.90;;;;;;5005744;28;20070;-84
2020/12/14 11:24:36;;;;;;;3.25;2.42;;;8.70;99.90;;;;;;5025107;28;20034;-85
2020/12/14 11:27:03;;;;;;;4.60;2.30;;;8.80;99.90;;;;;;5024858;28;20136;-85
2020/12/14 11:29:29;;;;;;;4.40;2.22;;;8.80;99.90;;;;;;5025142;28;20044;-85
2020/12/14 11:31:55;;;;;;;4.25;2.20;;;8.80;99.90;;;;;;5024628;28;20115;-83
2020/12/14 11:34:21;;;;;;;2.33;1.63;;;8.80;99.90;;;;;;5008459;28;20030;-84
2020/12/14 11:36:48;;;;;;;4.07;2.50;;;8.80;99.90;;;;;;5024729;28;20026;-84
2020/12/14 11:39:14;;;;;;;3.38;1.67;;;8.80;99.90;;;;;;5007577;28;20061;-84
2020/12/14 11:41:39;;;;;;;2.92;2.30;;;8.80;99.90;;;;;;5008434;28;20038;-85
2020/12/14 11:44:05;;;;;;;2.97;1.80;;;8.90;99.90;;;;;;5024795;28;20025;-84
2020/12/14 11:46:31;;;;;;;3.88;2.08;;;8.90;99.90;;;;;;4991801;28;20038;-85
2020/12/14 11:48:57;;;;;;;3.78;1.98;;;8.90;99.90;;;;;;5024519;28;20038;-85
2020/12/14 11:51:23;;;;;;;2.83;2.00;;;8.90;99.90;;;;;;5025649;28;20034;-85
2020/12/14 11:53:49;;;;;;;3.20;1.88;;;8.90;99.90;;;;;;5024744;28;20101;-84
2020/12/14 11:56:15;;;;;;;2.50;1.70;;;9.00;99.90;;;;;;5008107;28;20026;-84
2020/12/14 11:58:41;;;;;;;3.08;1.88;;;9.00;99.90;;;;;;5008303;28;20030;-85
2020/12/14 12:01:06;;;;;;;2.47;1.50;;;9.00;99.90;;;;;;5024709;28;20041;-85
2020/12/14 12:03:52;;;;;;;1.98;1.30;;;9.00;99.90;;;;;;5024233;28;20053;-84
2020/12/14 12:06:18;;;;;;;2.17;1.55;;;9.00;99.90;;;;;;4976567;28;20061;-85
2020/12/14 12:08:44;;;;;;;4.22;1.85;;;9.00;99.90;;;;;;4971307;28;20090;-84
2020/12/14 12:11:12;;;;;;;3.25;2.17;;;9.00;99.90;;;;;;4971125;28;20129;-85
2020/12/14 12:13:38;;;;;;;2.95;2.08;;;9.10;99.90;;;;;;4971037;28;20045;-84
2020/12/14 12:16:06;;;;;;;3.42;1.92;;;9.00;99.90;;;;;;5017852;28;20118;-85
2020/12/14 12:18:31;;;;;;;2.70;1.90;;;9.00;99.90;;;;;;5006719;28;20034;-85
2020/12/14 12:20:57;;;;;;;2.50;1.98;;;9.00;99.90;;;;;;5008880;28;20037;-85
2020/12/14 12:23:22;;;;;;;2.15;1.60;;;9.10;99.90;;;;;;5009907;28;20068;-85
2020/12/14 12:25:48;;;;;;;2.10;1.17;;;9.10;99.90;;;;;;5010151;28;20044;-86
2020/12/14 12:28:14;;;;;;;2.40;1.55;;;9.10;99.90;;;;;;5009998;28;20065;-87
2020/12/14 12:30:39;;;;;;;1.98;1.35;;;9.10;99.90;;;;;;5026409;28;20042;-86
2020/12/14 12:33:05;;;;;;;2.70;1.60;;;9.10;99.90;;;;;;5042828;28;20091;-85
2020/12/14 12:35:31;;;;;;;2.30;1.40;;;9.10;99.90;;;;;;5009843;28;20045;-85
2020/12/14 12:37:56;;;;;;;2.53;1.20;;;9.10;99.90;;;;;;5009858;28;20056;-85
2020/12/14 12:40:22;;;;;;;1.73;1.00;;;9.10;99.90;;;;;;5009923;28;20355;-86
2020/12/14 12:42:48;;;;;;;2.67;1.58;;;9.10;99.90;;;;;;5006834;28;20045;-87
2020/12/14 12:45:13;;;;;;;2.92;1.52;;;9.20;99.90;;;;;;5042806;28;20070;-85
2020/12/14 12:47:39;;;;;;;2.63;1.00;;;9.20;99.90;;;;;;5043837;28;20049;-87
2020/12/14 12:50:05;;;;;;;1.80;1.00;;;9.20;99.90;;;;;;5027626;28;20045;-86
2020/12/14 12:52:30;;;;;;;4.10;1.25;;;9.20;99.90;;;;;;5031032;28;20120;-85
2020/12/14 12:54:56;;;;;;;2.85;1.00;;;9.30;99.90;;;;;;5030840;28;20034;-85
2020/12/14 12:57:22;;;;;;;3.13;1.35;;;9.30;99.90;;;;;;5030748;28;20033;-85
2020/12/14 12:59:47;;;;;;;2.20;1.75;;;9.40;99.90;;;;;;5031067;28;20029;-86
2020/12/14 13:02:13;;;;;;;2.53;1.65;;;9.40;99.90;;;;;;5031192;28;20080;-88